Time;durP1;ratioP1;P1;durP2;ratioP2;P2;SDS_P1;SDS_P2;PMS_P1;PMS_P2;Temp;Humidity;BMP_temperature;BMP_pressure;BME280_temperature;BME280_humidity;BME280_pressure;Samples;Min_cycle;Max_cycle;Signal;HPM_P1;HPM_P2
2023/03/05 00:01:33;;;;;;;28.63;16.70;;;3.60;78.00;;;;;;5053851;28;20040;-70
2023/03/05 00:03:59;;;;;;;31.98;16.65;;;3.60;78.20;;;;;;5054373;28;20369;-69
2023/03/05 00:06:27;;;;;;;25.77;15.90;;;3.60;78.30;;;;;;5054104;28;20036;-69
2023/03/05 00:08:55;;;;;;;26.35;15.68;;;3.60;78.30;;;;;;5054157;28;20033;-69
2023/03/05 00:11:21;;;;;;;28.63;16.58;;;3.60;78.20;;;;;;5053580;28;20040;-69
2023/03/05 00:13:50;;;;;;;28.65;16.48;;;3.70;78.10;;;;;;5053695;28;20481;-69
2023/03/05 00:16:16;;;;;;;29.60;17.52;;;3.70;77.90;;;;;;5053424;28;20098;-69
2023/03/05 00:18:42;;;;;;;27.48;15.95;;;3.60;78.00;;;;;;5053623;28;20049;-69
2023/03/05 00:21:23;;;;;;;28.55;16.80;;;3.60;78.30;;;;;;5053144;28;20095;-70
2023/03/05 00:23:51;;;;;;;29.63;17.15;;;3.60;78.20;;;;;;5052897;28;20036;-69
2023/03/05 00:26:19;;;;;;;28.40;15.82;;;3.60;78.40;;;;;;5052711;28;20326;-70
2023/03/05 00:28:49;;;;;;;30.95;17.08;;;3.60;78.40;;;;;;5053459;28;20069;-70
2023/03/05 00:31:19;;;;;;;28.20;15.82;;;3.60;78.60;;;;;;5052959;28;20028;-69
2023/03/05 00:33:45;;;;;;;28.10;15.05;;;3.60;78.80;;;;;;5053302;28;20111;-69
2023/03/05 00:36:11;;;;;;;27.88;16.50;;;3.60;78.70;;;;;;5048781;28;20453;-70
2023/03/05 00:38:37;;;;;;;26.52;16.33;;;3.60;78.70;;;;;;5052997;28;20443;-72
2023/03/05 00:41:03;;;;;;;26.58;16.25;;;3.60;79.00;;;;;;5053518;28;20071;-71
2023/03/05 00:43:28;;;;;;;27.33;16.05;;;3.60;78.90;;;;;;5053338;28;20055;-70
2023/03/05 00:45:54;;;;;;;26.40;15.57;;;3.60;79.00;;;;;;5053608;28;20078;-70
2023/03/05 00:48:21;;;;;;;28.00;17.08;;;3.60;79.10;;;;;;5053216;28;20025;-70
2023/03/05 00:50:47;;;;;;;27.42;16.23;;;3.60;79.10;;;;;;5053255;28;20067;-70
2023/03/05 00:53:13;;;;;;;29.00;16.40;;;3.60;79.20;;;;;;5052578;28;20052;-70
2023/03/05 00:55:38;;;;;;;27.08;15.48;;;3.60;79.10;;;;;;5053284;28;20385;-70
2023/03/05 00:58:04;;;;;;;24.30;14.90;;;3.60;79.40;;;;;;5053020;28;20032;-69
2023/03/05 01:00:30;;;;;;;27.63;15.52;;;3.60;79.30;;;;;;5052415;28;20025;-70
2023/03/05 01:02:55;;;;;;;25.70;15.27;;;3.60;79.40;;;;;;5052618;28;20449;-69
2023/03/05 01:05:21;;;;;;;26.35;15.15;;;3.70;79.40;;;;;;5052732;28;20070;-70
2023/03/05 01:07:47;;;;;;;27.05;14.82;;;3.70;79.30;;;;;;5052738;28;20369;-70
2023/03/05 01:10:13;;;;;;;25.33;15.60;;;3.60;79.40;;;;;;5052201;28;20027;-70
2023/03/05 01:12:38;;;;;;;27.77;14.75;;;3.70;79.40;;;;;;5052782;28;20025;-70
2023/03/05 01:15:05;;;;;;;25.23;16.02;;;3.60;79.50;;;;;;5053121;28;20017;-70
2023/03/05 01:17:31;;;;;;;26.17;15.25;;;3.60;79.60;;;;;;5052321;28;20039;-69
2023/03/05 01:19:56;;;;;;;26.33;16.23;;;3.60;80.00;;;;;;5052802;28;20021;-69
2023/03/05 01:22:22;;;;;;;27.05;15.82;;;3.60;80.20;;;;;;5052418;28;20156;-70
2023/03/05 01:24:48;;;;;;;27.48;14.13;;;3.60;80.30;;;;;;5052786;28;20029;-70
2023/03/05 01:27:14;;;;;;;24.67;14.48;;;3.60;80.10;;;;;;5052280;28;20039;-70
2023/03/05 01:29:39;;;;;;;26.80;13.85;;;3.60;80.00;;;;;;5052735;28;20100;-69
2023/03/05 01:32:05;;;;;;;25.35;14.60;;;3.70;80.20;;;;;;5054861;28;20388;-69
2023/03/05 01:34:31;;;;;;;28.25;14.25;;;3.70;80.00;;;;;;5055241;28;20029;-69
2023/03/05 01:36:56;;;;;;;24.42;14.35;;;3.60;80.00;;;;;;5055256;28;20029;-69
2023/03/05 01:39:22;;;;;;;22.38;13.85;;;3.70;79.70;;;;;;5054927;28;20055;-69
2023/03/05 01:41:48;;;;;;;24.52;14.80;;;3.70;79.70;;;;;;5054402;28;20033;-70
2023/03/05 01:44:22;;;;;;;27.35;15.13;;;3.70;79.80;;;;;;5052385;28;20025;-69
2023/03/05 01:46:48;;;;;;;24.13;14.55;;;3.70;80.00;;;;;;5054073;28;20040;-69
2023/03/05 01:49:23;;;;;;;26.30;14.57;;;3.70;80.20;;;;;;5054244;28;20381;-70
2023/03/05 01:52:16;;;;;;;25.48;14.38;;;3.60;80.40;;;;;;5054186;28;20425;-70
2023/03/05 01:54:52;;;;;;;28.77;14.80;;;3.60;80.60;;;;;;5053359;28;20025;-70
2023/03/05 01:57:32;;;;;;;23.10;14.30;;;3.70;80.60;;;;;;5052828;28;20070;-70
2023/03/05 02:00:06;;;;;;;21.55;14.43;;;3.70;80.60;;;;;;5052730;28;20025;-69
2023/03/05 02:02:32;;;;;;;25.05;13.65;;;3.70;80.90;;;;;;5052407;28;20056;-70
2023/03/05 02:05:08;;;;;;;25.98;14.25;;;3.70;80.90;;;;;;5052727;28;20060;-69
2023/03/05 02:07:36;;;;;;;23.45;14.48;;;3.70;80.90;;;;;;5052020;28;20088;-70
2023/03/05 02:10:17;;;;;;;24.10;14.98;;;3.70;80.80;;;;;;5052380;28;20021;-69
2023/03/05 02:12:43;;;;;;;25.50;15.38;;;3.70;81.00;;;;;;5052160;28;20389;-69
2023/03/05 02:15:11;;;;;;;29.08;16.77;;;3.70;81.00;;;;;;5052195;28;20040;-69
2023/03/05 02:17:36;;;;;;;26.73;14.25;;;3.70;81.10;;;;;;5051480;28;20033;-70
2023/03/05 02:20:15;;;;;;;28.08;15.27;;;3.70;81.30;;;;;;5051965;28;20025;-68
2023/03/05 02:22:41;;;;;;;28.83;15.45;;;3.70;81.60;;;;;;5051750;28;20048;-68
2023/03/05 02:25:24;;;;;;;28.13;14.35;;;3.60;82.00;;;;;;5052170;28;20021;-69
2023/03/05 02:27:55;;;;;;;22.75;15.02;;;3.70;82.20;;;;;;5050221;28;20029;-69
2023/03/05 02:30:21;;;;;;;26.63;16.08;;;3.60;82.30;;;;;;5051920;28;20025;-70
2023/03/05 02:32:47;;;;;;;24.67;14.80;;;3.60;82.70;;;;;;5052205;28;20462;-69
2023/03/05 02:35:13;;;;;;;28.13;15.38;;;3.60;83.40;;;;;;5052540;28;20025;-69
2023/03/05 02:37:38;;;;;;;25.58;15.60;;;3.60;83.70;;;;;;5052077;28;20464;-69
2023/03/05 02:40:05;;;;;;;25.65;14.82;;;3.60;83.70;;;;;;5051883;28;20063;-69
2023/03/05 02:42:32;;;;;;;24.88;15.45;;;3.60;83.90;;;;;;5051969;28;20051;-69
2023/03/05 02:44:59;;;;;;;23.95;14.95;;;3.60;84.10;;;;;;5052138;28;20465;-69
2023/03/05 02:47:25;;;;;;;28.70;15.27;;;3.60;84.30;;;;;;5052827;28;20040;-69
2023/03/05 02:49:51;;;;;;;26.67;14.95;;;3.60;84.30;;;;;;5055519;28;20033;-69
2023/03/05 02:52:17;;;;;;;24.23;14.95;;;3.60;84.20;;;;;;5054785;28;20094;-71
2023/03/05 02:54:43;;;;;;;28.92;15.30;;;3.60;84.30;;;;;;5055382;28;20029;-69
2023/03/05 02:57:08;;;;;;;25.55;15.65;;;3.60;83.90;;;;;;5055412;28;20029;-69
2023/03/05 02:59:34;;;;;;;23.33;14.73;;;3.60;83.90;;;;;;5054529;28;20029;-69
2023/03/05 03:02:00;;;;;;;26.23;15.30;;;3.70;83.70;;;;;;5055327;28;20151;-69
2023/03/05 03:04:25;;;;;;;23.83;15.95;;;3.70;83.70;;;;;;5054571;28;20028;-69
2023/03/05 03:06:51;;;;;;;23.92;15.95;;;3.70;83.80;;;;;;5054864;28;20103;-69
2023/03/05 03:09:17;;;;;;;26.85;15.50;;;3.60;83.90;;;;;;5055017;28;20056;-73
2023/03/05 03:11:42;;;;;;;26.05;16.08;;;3.60;84.10;;;;;;5055586;28;20024;-69
2023/03/05 03:14:08;;;;;;;25.88;15.85;;;3.60;84.20;;;;;;5054965;28;20368;-69
2023/03/05 03:16:34;;;;;;;27.52;15.98;;;3.60;84.20;;;;;;5054284;28;20075;-69
2023/03/05 03:18:59;;;;;;;22.67;15.13;;;3.60;83.90;;;;;;5055031;28;20033;-69
2023/03/05 03:21:25;;;;;;;28.17;16.27;;;3.60;84.00;;;;;;5054372;28;20029;-69
2023/03/05 03:23:51;;;;;;;22.63;15.25;;;3.60;83.90;;;;;;5054848;28;20071;-69
2023/03/05 03:26:18;;;;;;;24.50;15.57;;;3.70;83.80;;;;;;5055234;28;20461;-69
2023/03/05 03:28:44;;;;;;;22.65;14.90;;;3.60;83.90;;;;;;5054593;28;20025;-69
2023/03/05 03:31:10;;;;;;;24.83;14.60;;;3.70;83.90;;;;;;5054885;28;20449;-70
2023/03/05 03:33:35;;;;;;;23.85;15.02;;;3.70;83.70;;;;;;5054251;28;20025;-70
2023/03/05 03:36:03;;;;;;;23.73;14.93;;;3.70;83.90;;;;;;5054572;28;20354;-70
2023/03/05 03:38:29;;;;;;;24.48;14.43;;;3.70;83.80;;;;;;5054203;28;20056;-69
2023/03/05 03:40:54;;;;;;;27.73;16.05;;;3.70;84.00;;;;;;5054663;28;20029;-70
2023/03/05 03:43:20;;;;;;;28.48;15.27;;;3.70;83.90;;;;;;5054241;28;20040;-71
2023/03/05 03:45:46;;;;;;;25.00;14.98;;;3.70;83.90;;;;;;5054561;28;20477;-70
2023/03/05 03:48:12;;;;;;;24.08;14.57;;;3.70;83.90;;;;;;5054226;28;20104;-70
2023/03/05 03:50:39;;;;;;;22.52;14.75;;;3.70;83.90;;;;;;5054086;28;20031;-70
2023/03/05 03:53:04;;;;;;;26.38;15.85;;;3.70;83.90;;;;;;5054429;28;20485;-69
2023/03/05 03:55:30;;;;;;;25.38;16.17;;;3.70;84.00;;;;;;5036187;28;20025;-69
2023/03/05 03:57:56;;;;;;;23.70;14.93;;;3.70;84.30;;;;;;5054275;28;20361;-70
2023/03/05 04:00:21;;;;;;;25.30;15.18;;;3.80;84.20;;;;;;5052887;28;20470;-73
2023/03/05 04:02:47;;;;;;;22.17;14.27;;;3.80;84.90;;;;;;5054237;28;20021;-70
2023/03/05 04:05:13;;;;;;;25.13;15.57;;;3.80;84.30;;;;;;5054551;28;20025;-69
2023/03/05 04:07:38;;;;;;;22.55;13.98;;;3.80;84.70;;;;;;5053499;28;20074;-69
2023/03/05 04:10:04;;;;;;;23.80;15.40;;;3.80;84.60;;;;;;5054044;28;20021;-70
2023/03/05 04:12:30;;;;;;;24.80;14.98;;;3.70;84.90;;;;;;5035649;28;20396;-70
2023/03/05 04:14:55;;;;;;;22.30;14.32;;;3.70;85.20;;;;;;5054265;28;20051;-69
2023/03/05 04:17:21;;;;;;;24.55;15.18;;;3.70;85.60;;;;;;5053840;28;20032;-69
2023/03/05 04:19:47;;;;;;;24.80;13.63;;;3.70;85.70;;;;;;5053048;28;20035;-70
2023/03/05 04:22:15;;;;;;;22.70;14.02;;;3.70;85.50;;;;;;5053664;28;20029;-69
2023/03/05 04:24:41;;;;;;;23.38;14.73;;;3.80;85.70;;;;;;5053045;28;20393;-70
2023/03/05 04:27:07;;;;;;;22.98;13.65;;;3.70;86.00;;;;;;5053615;28;20108;-69
2023/03/05 04:29:34;;;;;;;22.98;14.40;;;3.70;86.00;;;;;;5039914;28;20371;-69
2023/03/05 04:31:59;;;;;;;22.42;14.45;;;3.70;86.10;;;;;;5033576;28;20025;-69
2023/03/05 04:34:25;;;;;;;25.00;14.73;;;3.70;86.30;;;;;;5033230;28;20342;-73
2023/03/05 04:36:51;;;;;;;23.05;15.30;;;3.80;86.30;;;;;;5032890;28;20025;-69
2023/03/05 04:39:19;;;;;;;23.55;15.23;;;3.70;86.40;;;;;;5033031;28;20489;-69
2023/03/05 04:41:46;;;;;;;22.92;14.13;;;3.70;86.30;;;;;;5042228;28;20029;-69
2023/03/05 04:44:11;;;;;;;23.80;15.35;;;3.70;86.70;;;;;;5053089;28;20029;-70
2023/03/05 04:46:37;;;;;;;22.77;14.15;;;3.70;86.70;;;;;;5052473;28;20527;-70
2023/03/05 04:49:03;;;;;;;26.42;14.85;;;3.70;86.90;;;;;;5053148;28;20060;-70
2023/03/05 04:51:28;;;;;;;22.48;15.15;;;3.70;87.00;;;;;;5052778;28;20424;-70
2023/03/05 04:53:54;;;;;;;23.13;14.40;;;3.70;86.90;;;;;;5053172;28;20461;-69
2023/03/05 04:56:20;;;;;;;23.42;14.73;;;3.70;86.90;;;;;;5052817;28;20025;-69
2023/03/05 04:58:45;;;;;;;22.08;14.23;;;3.70;87.00;;;;;;5052779;28;20040;-69
2023/03/05 05:01:11;;;;;;;21.92;14.70;;;3.70;87.20;;;;;;5053187;28;20025;-69
2023/03/05 05:03:36;;;;;;;24.95;15.70;;;3.70;87.60;;;;;;5048297;28;20026;-70
2023/03/05 05:06:02;;;;;;;22.20;14.48;;;3.70;87.60;;;;;;5033253;28;20017;-69
2023/03/05 05:08:28;;;;;;;26.98;14.85;;;3.70;87.60;;;;;;5032654;28;20094;-74
2023/03/05 05:10:59;;;;;;;25.20;15.38;;;3.70;88.10;;;;;;5032282;28;20026;-69
2023/03/05 05:13:25;;;;;;;22.30;14.07;;;3.70;88.00;;;;;;5032995;28;20029;-69
2023/03/05 05:15:51;;;;;;;21.92;14.50;;;3.70;87.90;;;;;;5032109;28;20034;-69
2023/03/05 05:18:17;;;;;;;24.48;14.90;;;3.70;87.70;;;;;;5032745;28;20492;-69
2023/03/05 05:20:43;;;;;;;21.33;14.48;;;3.70;87.70;;;;;;5032598;28;20029;-69
2023/03/05 05:23:09;;;;;;;23.33;14.98;;;3.80;87.80;;;;;;5032963;28;20025;-70
2023/03/05 05:25:34;;;;;;;24.25;14.82;;;3.80;87.80;;;;;;5032588;28;20136;-70
2023/03/05 05:28:00;;;;;;;22.52;14.30;;;3.80;87.70;;;;;;5033000;28;20052;-69
2023/03/05 05:30:26;;;;;;;23.13;15.68;;;3.80;88.00;;;;;;5033163;28;20068;-69
2023/03/05 05:32:51;;;;;;;22.50;15.25;;;3.80;87.90;;;;;;5032477;28;20032;-70
2023/03/05 05:35:17;;;;;;;26.80;16.40;;;3.80;87.80;;;;;;5032836;28;20028;-69
2023/03/05 05:37:43;;;;;;;25.38;15.93;;;3.80;87.80;;;;;;5036016;28;20033;-70
2023/03/05 05:40:09;;;;;;;27.38;15.77;;;3.90;87.90;;;;;;5041412;28;20033;-69
2023/03/05 05:42:35;;;;;;;28.02;16.42;;;3.90;87.80;;;;;;5043567;28;20026;-68
2023/03/05 05:45:01;;;;;;;24.23;15.07;;;3.80;88.00;;;;;;5035998;28;20100;-69
2023/03/05 05:47:28;;;;;;;25.92;15.93;;;3.80;88.30;;;;;;5032706;28;20466;-68
2023/03/05 05:49:55;;;;;;;24.38;14.85;;;3.80;88.30;;;;;;5032192;28;20021;-69
2023/03/05 05:52:21;;;;;;;23.90;15.30;;;3.90;88.00;;;;;;5032857;28;20025;-69
2023/03/05 05:54:47;;;;;;;22.38;15.05;;;3.90;88.20;;;;;;5032132;28;20033;-69
2023/03/05 05:57:13;;;;;;;24.05;15.52;;;3.90;88.50;;;;;;5014773;28;20057;-68
2023/03/05 05:59:39;;;;;;;25.55;14.50;;;3.80;88.30;;;;;;5031692;28;20057;-70
2023/03/05 06:02:06;;;;;;;26.30;15.65;;;3.90;88.40;;;;;;5032237;28;20048;-69
2023/03/05 06:04:32;;;;;;;23.88;15.60;;;3.80;88.60;;;;;;5032563;28;20032;-69
2023/03/05 06:06:58;;;;;;;24.92;15.57;;;3.80;89.00;;;;;;5032046;28;20134;-70
2023/03/05 06:09:24;;;;;;;24.77;15.38;;;3.80;89.10;;;;;;5032274;28;20457;-69
2023/03/05 06:11:50;;;;;;;27.60;15.07;;;3.80;89.00;;;;;;5031797;28;20101;-71
2023/03/05 06:14:16;;;;;;;26.42;15.18;;;3.80;89.10;;;;;;5032462;28;20109;-69
2023/03/05 06:16:41;;;;;;;23.30;14.73;;;3.90;89.30;;;;;;5031881;28;20104;-69
2023/03/05 06:19:12;;;;;;;25.17;14.65;;;3.90;89.10;;;;;;5015250;28;20050;-70
2023/03/05 06:21:37;;;;;;;22.70;14.82;;;3.90;89.10;;;;;;5049341;28;20029;-70
2023/03/05 06:24:03;;;;;;;26.23;15.10;;;3.90;89.10;;;;;;5055889;28;20100;-69
2023/03/05 06:26:29;;;;;;;23.50;14.55;;;3.90;89.10;;;;;;5055947;28;20100;-69
2023/03/05 06:28:55;;;;;;;22.55;15.48;;;3.90;89.30;;;;;;5055035;28;20621;-68
2023/03/05 06:31:26;;;;;;;25.55;13.82;;;3.90;89.40;;;;;;5037978;28;20075;-68
2023/03/05 06:33:53;;;;;;;;;;;3.90;90.10;;;;;;5055952;28;20423;-69
2023/03/05 06:36:20;;;;;;;24.58;14.65;;;4.00;89.60;;;;;;5055906;28;19950;-68
2023/03/05 06:38:46;;;;;;;23.00;14.80;;;4.00;89.40;;;;;;5054963;28;20041;-69
2023/03/05 06:41:15;;;;;;;24.40;13.85;;;4.00;89.60;;;;;;5055402;28;20035;-69
2023/03/05 06:43:42;;;;;;;25.40;15.88;;;4.00;89.50;;;;;;5054506;28;20489;-69
2023/03/05 06:46:14;;;;;;;23.60;14.50;;;4.00;89.80;;;;;;5055136;28;20108;-69
2023/03/05 06:48:40;;;;;;;25.65;15.25;;;4.00;90.00;;;;;;5055084;28;20029;-69
2023/03/05 06:51:13;;;;;;;25.77;14.98;;;4.00;90.00;;;;;;5055675;28;20029;-69
2023/03/05 06:53:39;;;;;;;26.67;15.25;;;4.00;89.80;;;;;;5055184;28;20377;-70
2023/03/05 06:56:04;;;;;;;24.35;15.18;;;4.00;89.80;;;;;;5056047;28;20029;-69
2023/03/05 06:58:30;;;;;;;27.27;15.68;;;4.00;90.00;;;;;;5055538;28;20033;-68
2023/03/05 07:00:56;;;;;;;25.67;16.17;;;4.00;90.00;;;;;;5054836;28;20508;-69
2023/03/05 07:03:21;;;;;;;25.75;16.40;;;4.00;89.90;;;;;;5055387;28;20111;-69
2023/03/05 07:05:47;;;;;;;25.92;16.52;;;4.00;89.90;;;;;;5054590;28;20102;-70
2023/03/05 07:08:12;;;;;;;27.23;17.35;;;4.10;90.00;;;;;;5055148;28;20155;-69
2023/03/05 07:10:39;;;;;;;26.80;16.70;;;4.00;90.00;;;;;;5054802;28;20029;-72
2023/03/05 07:13:06;;;;;;;31.63;18.17;;;4.00;90.00;;;;;;5055170;28;20044;-70
2023/03/05 07:15:32;;;;;;;28.40;17.65;;;4.00;90.00;;;;;;5037334;28;20029;-70
2023/03/05 07:17:57;;;;;;;32.28;18.40;;;4.10;90.00;;;;;;5054189;28;20036;-68
2023/03/05 07:20:23;;;;;;;35.90;18.13;;;4.10;89.80;;;;;;5037081;28;20120;-69
2023/03/05 07:22:49;;;;;;;32.15;19.17;;;4.10;89.60;;;;;;5054649;28;20112;-70
2023/03/05 07:25:20;;;;;;;29.77;18.08;;;4.10;89.60;;;;;;5055103;28;20035;-69
2023/03/05 07:27:46;;;;;;;32.17;18.20;;;4.10;89.80;;;;;;5054596;28;20032;-67
2023/03/05 07:30:13;;;;;;;32.30;18.85;;;4.10;89.50;;;;;;5052585;28;20029;-69
2023/03/05 07:32:38;;;;;;;32.28;17.15;;;4.10;89.80;;;;;;5045317;28;20040;-69
2023/03/05 07:35:04;;;;;;;33.88;19.17;;;4.10;89.50;;;;;;5045364;28;20017;-71
2023/03/05 07:37:30;;;;;;;27.85;17.52;;;4.10;89.30;;;;;;5048457;28;20136;-69
2023/03/05 07:39:56;;;;;;;31.08;17.27;;;4.20;89.20;;;;;;5042476;28;20049;-70
2023/03/05 07:42:21;;;;;;;28.30;18.38;;;4.20;88.70;;;;;;5037649;28;20033;-70
2023/03/05 07:44:47;;;;;;;29.40;17.92;;;4.20;88.50;;;;;;5033962;28;20083;-68
2023/03/05 07:47:14;;;;;;;31.48;18.05;;;4.20;88.50;;;;;;5024182;28;20461;-69
2023/03/05 07:49:40;;;;;;;27.15;16.70;;;4.20;88.50;;;;;;5043137;28;20052;-69
2023/03/05 07:52:07;;;;;;;27.65;17.05;;;4.20;88.70;;;;;;5048288;28;20020;-70
2023/03/05 07:54:36;;;;;;;31.67;17.42;;;4.30;88.20;;;;;;5054105;28;20460;-71
2023/03/05 07:57:07;;;;;;;28.00;17.10;;;4.30;88.20;;;;;;5053542;28;20065;-70
2023/03/05 07:59:33;;;;;;;25.42;17.08;;;4.30;87.90;;;;;;5054164;28;20029;-70
2023/03/05 08:01:59;;;;;;;26.00;15.65;;;4.30;87.70;;;;;;5053889;28;20029;-70
2023/03/05 08:04:25;;;;;;;27.02;16.30;;;4.30;87.60;;;;;;5054219;28;20457;-70
2023/03/05 08:06:52;;;;;;;27.02;16.10;;;4.30;87.80;;;;;;5053534;28;20037;-70
2023/03/05 08:09:18;;;;;;;29.70;17.77;;;4.30;87.60;;;;;;5053846;28;20040;-69
2023/03/05 08:11:44;;;;;;;26.92;16.35;;;4.40;87.60;;;;;;5053438;28;20373;-74
2023/03/05 08:14:11;;;;;;;25.48;15.80;;;4.40;87.10;;;;;;5053618;28;20029;-70
2023/03/05 08:16:39;;;;;;;25.48;16.27;;;4.40;87.00;;;;;;5035677;28;20025;-70
2023/03/05 08:19:04;;;;;;;25.25;16.33;;;4.40;86.90;;;;;;5053129;28;20677;-70
2023/03/05 08:21:33;;;;;;;24.67;15.73;;;4.40;86.80;;;;;;5035741;28;20060;-70
2023/03/05 08:24:04;;;;;;;25.70;16.40;;;4.40;86.90;;;;;;5051277;28;20028;-70
2023/03/05 08:26:31;;;;;;;28.35;17.17;;;4.40;86.60;;;;;;5042622;28;20108;-70
2023/03/05 08:28:57;;;;;;;26.52;16.65;;;4.50;86.90;;;;;;5053374;28;20396;-70
2023/03/05 08:31:25;;;;;;;29.90;17.67;;;4.50;86.90;;;;;;5053781;28;20037;-70
2023/03/05 08:33:53;;;;;;;31.30;17.00;;;4.50;87.00;;;;;;5052968;28;20074;-70
2023/03/05 08:36:19;;;;;;;27.52;16.25;;;4.50;87.00;;;;;;5053401;28;20029;-69
2023/03/05 08:38:47;;;;;;;26.65;17.30;;;4.50;86.90;;;;;;5052551;28;20111;-69
2023/03/05 08:41:14;;;;;;;28.25;17.50;;;4.60;86.70;;;;;;5053145;28;20047;-70
2023/03/05 08:43:39;;;;;;;33.88;17.15;;;4.60;86.10;;;;;;5052882;28;20025;-71
2023/03/05 08:46:06;;;;;;;26.75;17.05;;;4.60;85.80;;;;;;5051809;28;20257;-69
2023/03/05 08:48:32;;;;;;;25.50;16.95;;;4.70;85.90;;;;;;5052326;28;20044;-70
2023/03/05 08:51:08;;;;;;;29.10;17.50;;;4.70;85.20;;;;;;5049440;28;20112;-70
2023/03/05 08:53:33;;;;;;;26.00;16.73;;;4.60;85.60;;;;;;5048940;28;20086;-70
2023/03/05 08:55:59;;;;;;;26.65;16.67;;;4.60;85.50;;;;;;5046501;28;20377;-70
2023/03/05 08:58:25;;;;;;;31.77;18.52;;;4.70;85.90;;;;;;5056325;28;20036;-70
2023/03/05 09:00:51;;;;;;;25.38;17.33;;;4.70;85.40;;;;;;5049461;28;20458;-69
2023/03/05 09:03:17;;;;;;;30.30;18.55;;;4.70;85.20;;;;;;5042044;28;20025;-69
2023/03/05 09:05:42;;;;;;;26.80;17.70;;;4.70;85.40;;;;;;5043747;28;20096;-69
2023/03/05 09:08:08;;;;;;;24.48;17.35;;;4.70;85.40;;;;;;5045130;28;20461;-69
2023/03/05 09:10:34;;;;;;;32.50;18.67;;;4.80;84.90;;;;;;5039677;28;20450;-69
2023/03/05 09:12:59;;;;;;;31.42;18.80;;;4.80;84.70;;;;;;5032334;28;20025;-69
2023/03/05 09:15:25;;;;;;;30.80;19.08;;;4.80;84.70;;;;;;5033112;28;20068;-69
2023/03/05 09:17:51;;;;;;;28.10;17.88;;;4.90;84.60;;;;;;5014982;28;20036;-70
2023/03/05 09:20:17;;;;;;;30.98;17.63;;;4.90;84.30;;;;;;5015252;28;20045;-70
2023/03/05 09:22:42;;;;;;;31.90;17.90;;;5.00;84.40;;;;;;5015269;28;20080;-70
2023/03/05 09:25:10;;;;;;;28.63;16.95;;;5.00;84.30;;;;;;5041016;28;20029;-70
2023/03/05 09:27:37;;;;;;;28.73;17.60;;;5.10;83.20;;;;;;5041712;28;20058;-70
2023/03/05 09:30:04;;;;;;;26.73;16.80;;;5.10;83.30;;;;;;5039973;28;20029;-71
2023/03/05 09:32:30;;;;;;;27.65;17.15;;;5.20;83.30;;;;;;5034801;28;20029;-71
2023/03/05 09:34:56;;;;;;;24.30;16.23;;;5.20;83.00;;;;;;5034097;28;20520;-70
2023/03/05 09:37:22;;;;;;;28.45;18.48;;;5.30;82.80;;;;;;5034439;28;20067;-70
2023/03/05 09:39:47;;;;;;;28.63;16.60;;;5.30;81.70;;;;;;5041717;28;20052;-70
2023/03/05 09:42:13;;;;;;;28.77;18.10;;;5.40;81.30;;;;;;5039647;28;20028;-71
2023/03/05 09:44:54;;;;;;;27.38;16.75;;;5.40;81.60;;;;;;5039058;28;20489;-70
2023/03/05 09:47:31;;;;;;;26.40;16.52;;;5.50;81.30;;;;;;5051017;28;20029;-70
2023/03/05 09:50:03;;;;;;;29.20;16.92;;;5.40;80.70;;;;;;5051311;28;20052;-69
2023/03/05 09:52:50;;;;;;;26.67;15.93;;;5.60;81.50;;;;;;5052013;28;20025;-70
2023/03/05 09:55:26;;;;;;;28.52;17.02;;;5.80;80.60;;;;;;5051656;28;20026;-69
2023/03/05 09:57:56;;;;;;;31.35;17.25;;;5.90;80.00;;;;;;5039377;28;20487;-69
2023/03/05 10:00:48;;;;;;;25.52;17.02;;;6.10;79.10;;;;;;5042552;28;20438;-71
2023/03/05 10:03:17;;;;;;;25.15;16.00;;;6.10;77.30;;;;;;5042322;28;20041;-69
2023/03/05 10:06:17;;;;;;;27.40;16.98;;;6.10;76.70;;;;;;5052144;28;20029;-68
2023/03/05 10:09:04;;;;;;;22.83;14.88;;;6.10;76.70;;;;;;4991066;28;20128;-69
2023/03/05 10:11:40;;;;;;;26.55;16.30;;;6.20;76.00;;;;;;5035302;28;20395;-69
2023/03/05 10:14:12;;;;;;;24.65;16.63;;;6.30;75.30;;;;;;5035216;28;20116;-70
2023/03/05 10:16:41;;;;;;;26.40;15.80;;;6.30;76.20;;;;;;5036552;28;20346;-70
2023/03/05 10:19:16;;;;;;;28.27;17.10;;;6.50;75.50;;;;;;5038391;28;20086;-70
2023/03/05 10:21:52;;;;;;;28.80;16.55;;;6.50;75.60;;;;;;5044576;28;20018;-70
2023/03/05 10:24:24;;;;;;;24.95;16.58;;;6.50;74.50;;;;;;5044838;28;20018;-70
2023/03/05 10:27:34;;;;;;;25.42;15.98;;;6.50;74.20;;;;;;5025744;28;20033;-70
2023/03/05 10:30:06;;;;;;;27.20;16.75;;;6.50;74.00;;;;;;5051537;28;20362;-70
2023/03/05 10:32:54;;;;;;;23.33;15.73;;;6.50;73.80;;;;;;5024903;28;20198;-71
2023/03/05 10:35:42;;;;;;;25.80;16.77;;;6.50;73.90;;;;;;5035070;28;20021;-69
2023/03/05 10:38:34;;;;;;;25.45;17.00;;;6.40;74.00;;;;;;5034200;28;20073;-69
2023/03/05 10:41:22;;;;;;;27.40;16.00;;;6.40;74.00;;;;;;5043560;28;20359;-69
2023/03/05 10:43:59;;;;;;;25.10;15.70;;;6.50;74.20;;;;;;5053740;28;20039;-70
2023/03/05 10:46:31;;;;;;;27.42;16.52;;;6.50;74.40;;;;;;5054548;28;20051;-69
2023/03/05 10:49:18;;;;;;;28.92;16.90;;;6.50;74.00;;;;;;5036309;28;20373;-70
2023/03/05 10:52:15;;;;;;;28.75;16.60;;;6.60;73.10;;;;;;5054449;28;20495;-70
2023/03/05 10:54:42;;;;;;;26.10;15.55;;;6.60;72.50;;;;;;5031099;28;20037;-68
2023/03/05 10:57:11;;;;;;;25.65;15.52;;;6.70;71.50;;;;;;5048324;28;20037;-71
2023/03/05 10:59:36;;;;;;;28.58;15.30;;;6.70;71.20;;;;;;5043311;28;20032;-71
2023/03/05 11:02:07;;;;;;;24.92;15.77;;;6.80;71.60;;;;;;5043446;28;20033;-70
2023/03/05 11:04:38;;;;;;;23.70;14.68;;;6.80;71.20;;;;;;5044015;28;20505;-70
2023/03/05 11:07:27;;;;;;;23.73;15.23;;;7.00;70.30;;;;;;5037842;28;20040;-71
2023/03/05 11:09:59;;;;;;;26.13;15.73;;;7.00;69.50;;;;;;5053745;28;20051;-71
2023/03/05 11:12:33;;;;;;;26.60;15.38;;;7.00;69.20;;;;;;5055002;28;20036;-70
2023/03/05 11:15:05;;;;;;;27.27;16.40;;;7.10;69.80;;;;;;5056920;28;20025;-70
2023/03/05 11:17:38;;;;;;;27.48;15.55;;;7.20;70.10;;;;;;5061029;28;20488;-70
2023/03/05 11:20:19;;;;;;;23.50;14.85;;;7.20;68.90;;;;;;5072402;28;20047;-70
2023/03/05 11:23:14;;;;;;;29.30;16.50;;;7.30;68.70;;;;;;5037022;28;20028;-69
2023/03/05 11:25:57;;;;;;;26.35;16.23;;;7.20;69.20;;;;;;5068181;28;20086;-70
2023/03/05 11:28:35;;;;;;;27.80;16.50;;;7.30;69.30;;;;;;5061292;28;20082;-70
2023/03/05 11:31:08;;;;;;;28.65;17.20;;;7.30;69.00;;;;;;5072290;28;20456;-69
2023/03/05 11:33:36;;;;;;;27.67;16.70;;;7.20;69.00;;;;;;5074722;28;20028;-69
2023/03/05 11:36:29;;;;;;;27.42;17.20;;;7.20;68.70;;;;;;5067795;28;20029;-70
2023/03/05 11:39:15;;;;;;;27.63;16.38;;;7.10;68.90;;;;;;5054080;28;20064;-71
2023/03/05 11:41:51;;;;;;;26.10;16.48;;;7.10;69.40;;;;;;5062808;28;20017;-69
2023/03/05 11:44:23;;;;;;;32.22;17.48;;;7.10;69.40;;;;;;5059950;28;20025;-70
2023/03/05 11:46:58;;;;;;;27.92;16.45;;;7.00;69.30;;;;;;5056432;28;20384;-69
2023/03/05 11:49:27;;;;;;;28.52;17.80;;;7.00;69.60;;;;;;5074297;28;20032;-69
2023/03/05 11:52:20;;;;;;;25.60;16.92;;;6.90;69.50;;;;;;5074051;28;20468;-68
2023/03/05 11:55:22;;;;;;;29.67;17.13;;;6.90;69.20;;;;;;5057429;28;20040;-68
2023/03/05 11:58:21;;;;;;;27.55;15.65;;;6.80;69.60;;;;;;5032963;28;20041;-67
2023/03/05 12:00:47;;;;;;;25.75;15.40;;;6.80;69.00;;;;;;5068374;28;20038;-67
2023/03/05 12:03:35;;;;;;;28.52;15.93;;;6.70;68.20;;;;;;5033600;28;20517;-67
2023/03/05 12:06:25;;;;;;;29.45;16.75;;;6.70;68.50;;;;;;5033949;28;20026;-66
2023/03/05 12:08:54;;;;;;;26.50;16.42;;;6.70;68.90;;;;;;5056309;28;20033;-68
2023/03/05 12:11:27;;;;;;;28.30;16.15;;;6.60;69.30;;;;;;5074136;28;20024;-67
2023/03/05 12:14:23;;;;;;;29.05;16.45;;;6.60;69.40;;;;;;5069328;28;20420;-69
2023/03/05 12:17:12;;;;;;;32.22;15.85;;;6.60;69.30;;;;;;5041971;28;20500;-68
2023/03/05 12:19:39;;;;;;;25.38;15.35;;;6.40;68.90;;;;;;5047210;28;20021;-67
2023/03/05 12:22:24;;;;;;;27.85;15.38;;;6.40;69.10;;;;;;5052952;28;20077;-67
2023/03/05 12:24:50;;;;;;;25.85;14.88;;;6.30;69.30;;;;;;5033736;28;20433;-67
2023/03/05 12:27:35;;;;;;;26.70;15.73;;;6.30;69.00;;;;;;5061329;28;20083;-68
2023/03/05 12:30:02;;;;;;;24.90;14.82;;;6.30;68.90;;;;;;5055112;28;20132;-67
2023/03/05 12:32:33;;;;;;;29.75;16.05;;;6.30;69.40;;;;;;5051814;28;20037;-69
2023/03/05 12:35:21;;;;;;;24.17;15.65;;;6.30;69.70;;;;;;5045386;28;20424;-68
2023/03/05 12:37:50;;;;;;;27.52;15.93;;;6.20;70.10;;;;;;5041696;28;20030;-69
2023/03/05 12:40:31;;;;;;;30.52;16.42;;;6.20;70.30;;;;;;5040383;28;20112;-68
2023/03/05 12:43:05;;;;;;;28.38;15.35;;;6.20;70.40;;;;;;5039153;28;20025;-68
2023/03/05 12:45:32;;;;;;;32.35;16.13;;;6.20;70.60;;;;;;5042838;28;20108;-68
2023/03/05 12:47:57;;;;;;;26.02;15.65;;;6.20;70.20;;;;;;5034861;28;20377;-70
2023/03/05 12:50:26;;;;;;;24.08;14.77;;;6.20;70.00;;;;;;5032399;28;20108;-66